Time;durP1;ratioP1;P1;durP2;ratioP2;P2;SDS_P1;SDS_P2;PMS_P1;PMS_P2;Temp;Humidity;BMP_temperature;BMP_pressure;BME280_temperature;BME280_humidity;BME280_pressure;Samples;Min_cycle;Max_cycle;Signal;HPM_P1;HPM_P2
2022/12/14 00:00:33;;;;;;;33.28;13.53;;;;;;;1.93;100.00;100529.11;1631470;86;21825;-83
2022/12/14 00:02:59;;;;;;;34.40;13.30;;;;;;;1.91;100.00;100535.13;1632853;86;21737;-82
2022/12/14 00:05:27;;;;;;;37.17;13.88;;;;;;;1.88;100.00;100536.87;1641595;85;21103;-83
2022/12/14 00:07:53;;;;;;;33.63;12.28;;;;;;;1.96;100.00;100545.45;1636273;86;21069;-83
2022/12/14 00:10:19;;;;;;;33.48;13.00;;;;;;;1.95;100.00;100547.81;1639595;86;21056;-83
2022/12/14 00:12:45;;;;;;;31.82;12.98;;;;;;;1.93;100.00;100549.85;1635168;86;21878;-83
2022/12/14 00:15:11;;;;;;;33.98;12.85;;;;;;;1.86;100.00;100555.69;1629762;86;20936;-83
2022/12/14 00:17:38;;;;;;;32.08;12.80;;;;;;;1.87;100.00;100561.81;1632372;86;21009;-83
2022/12/14 00:20:05;;;;;;;34.45;13.45;;;;;;;1.96;100.00;100565.39;1639030;85;21190;-83
2022/12/14 00:22:31;;;;;;;36.40;14.25;;;;;;;1.92;100.00;100562.84;1654446;85;21007;-83
2022/12/14 00:24:57;;;;;;;40.35;15.10;;;;;;;1.95;100.00;100569.59;1655435;85;21774;-83
2022/12/14 00:27:23;;;;;;;36.20;14.05;;;;;;;1.89;100.00;100571.73;1652616;85;21772;-83
2022/12/14 00:29:49;;;;;;;38.05;13.90;;;;;;;1.97;100.00;100578.16;1651543;85;21059;-83
2022/12/14 00:32:15;;;;;;;36.93;13.68;;;;;;;1.84;100.00;100571.52;1655159;85;21637;-84
2022/12/14 00:34:41;;;;;;;39.23;14.65;;;;;;;1.78;100.00;100581.11;1659530;85;20959;-82
2022/12/14 00:37:07;;;;;;;32.40;13.00;;;;;;;1.85;100.00;100583.77;1654080;85;21858;-82
2022/12/14 00:39:33;;;;;;;32.80;13.03;;;;;;;1.87;100.00;100591.04;1650740;80;20869;-83
2022/12/14 00:41:59;;;;;;;36.25;14.80;;;;;;;1.74;100.00;100600.63;1773094;80;21024;-83
2022/12/14 00:44:25;;;;;;;34.45;14.15;;;;;;;1.70;100.00;100595.39;1779404;80;21051;-83
2022/12/14 00:46:51;;;;;;;34.70;12.98;;;;;;;1.89;100.00;100603.63;1747438;80;20911;-83
2022/12/14 00:49:18;;;;;;;32.78;12.80;;;;;;;1.76;100.00;100609.20;1762770;80;21763;-82
2022/12/14 00:51:44;;;;;;;36.15;13.58;;;;;;;1.73;100.00;100618.08;1760607;80;21464;-83
2022/12/14 00:54:10;;;;;;;36.30;13.40;;;;;;;1.62;100.00;100626.15;1757047;80;21117;-83
2022/12/14 00:56:36;;;;;;;35.73;14.10;;;;;;;1.64;100.00;100625.42;1751228;80;20951;-82
2022/12/14 00:59:02;;;;;;;34.23;13.20;;;;;;;1.59;100.00;100631.86;1750220;80;21658;-83
2022/12/14 01:01:29;;;;;;;35.00;13.68;;;;;;;1.49;100.00;100626.91;1757470;80;21821;-83
2022/12/14 01:06:41;;;;;;;36.98;14.53;;;;;;;1.50;100.00;100641.00;1747965;80;21007;-82
2022/12/14 01:09:07;;;;;;;37.28;14.07;;;;;;;1.48;100.00;100635.09;1750778;80;21058;-83
2022/12/14 01:11:33;;;;;;;41.00;15.15;;;;;;;1.40;100.00;100633.92;1757104;80;21034;-82
2022/12/14 01:13:59;;;;;;;40.67;14.75;;;;;;;1.29;100.00;100640.61;1753564;80;22645;-82
2022/12/14 01:16:25;;;;;;;40.08;14.70;;;;;;;1.15;100.00;100646.38;1751088;80;20880;-82
2022/12/14 01:18:51;;;;;;;38.80;14.63;;;;;;;1.16;100.00;100651.99;1751245;80;21070;-82
2022/12/14 01:21:21;;;;;;;38.15;15.48;;;;;;;0.99;100.00;100655.47;1779397;80;21606;-82
2022/12/14 01:27:28;;;;;;;39.75;15.65;;;;;;;1.00;100.00;100659.78;1766629;80;21811;-82
2022/12/14 01:29:54;;;;;;;37.70;15.45;;;;;;;0.85;100.00;100667.00;1768176;80;21048;-82
2022/12/14 01:32:20;;;;;;;39.42;15.23;;;;;;;0.84;100.00;100672.82;1753903;80;20895;-82
2022/12/14 01:38:27;;;;;;;42.55;15.48;;;;;;;0.99;100.00;100691.28;1759197;80;20995;-81
2022/12/14 01:40:58;;;;;;;41.37;16.00;;;;;;;0.98;100.00;100694.96;1756189;80;21787;-82
2022/12/14 01:43:24;;;;;;;43.45;15.95;;;;;;;0.98;100.00;100698.13;1746775;80;21582;-82
2022/12/14 01:45:54;;;;;;;42.10;15.65;;;;;;;1.01;100.00;100707.84;1761782;80;21039;-82
2022/12/14 01:48:22;;;;;;;39.63;15.25;;;;;;;1.10;100.00;100712.48;1753328;80;21004;-81
2022/12/14 01:50:48;;;;;;;41.85;16.75;;;;;;;1.05;100.00;100718.87;1758254;80;21496;-82
2022/12/14 01:53:18;;;;;;;41.70;15.88;;;;;;;0.98;100.00;100716.70;1779198;80;22512;-82
2022/12/14 01:59:36;;;;;;;41.08;15.83;;;;;;;1.12;100.00;100725.06;1765652;80;21436;-82
2022/12/14 02:02:05;;;;;;;41.05;15.83;;;;;;;1.08;100.00;100726.45;1775108;80;21007;-82
2022/12/14 02:04:39;;;;;;;42.60;16.12;;;;;;;1.08;100.00;100728.59;1771976;80;20988;-82
2022/12/14 02:07:04;;;;;;;40.73;15.48;;;;;;;1.16;100.00;100737.44;1743991;80;20999;-82
2022/12/14 02:09:36;;;;;;;43.52;16.27;;;;;;;1.22;100.00;100740.12;1760961;80;21188;-82
2022/12/14 02:12:22;;;;;;;42.93;16.65;;;;;;;1.28;100.00;100747.81;1769528;80;21015;-81
2022/12/14 02:14:48;;;;;;;38.53;15.23;;;;;;;1.38;100.00;100748.78;1756064;80;21050;-82
2022/12/14 02:17:15;;;;;;;44.08;17.05;;;;;;;1.42;100.00;100752.70;1769812;80;21062;-82
2022/12/14 02:19:42;;;;;;;44.50;16.77;;;;;;;1.39;100.00;100754.43;1768633;80;21802;-82
2022/12/14 02:22:29;;;;;;;45.15;16.40;;;;;;;1.34;100.00;100765.11;1763840;80;21011;-82
2022/12/14 02:25:34;;;;;;;51.30;17.92;;;;;;;1.52;100.00;100771.23;1761062;80;21005;-82
2022/12/14 02:28:52;;;;;;;47.17;17.90;;;;;;;1.41;100.00;100775.77;1755096;80;21016;-82
2022/12/14 02:31:32;;;;;;;52.27;19.40;;;;;;;1.57;100.00;100775.97;1765366;80;21625;-83
2022/12/14 02:34:19;;;;;;;59.15;20.37;;;;;;;1.52;100.00;100786.36;1745191;81;21920;-83
2022/12/14 02:37:11;;;;;;;55.52;20.37;;;;;;;1.61;100.00;100788.34;1741043;81;21059;-83
2022/12/14 02:39:54;;;;;;;56.90;20.45;;;;;;;1.57;100.00;100787.41;1683964;85;21267;-82
2022/12/14 02:42:50;;;;;;;56.20;21.10;;;;;;;1.62;100.00;100792.63;1684497;85;21027;-82
2022/12/14 02:45:35;;;;;;;57.80;19.60;;;;;;;1.64;100.00;100802.05;1681945;85;21023;-82
2022/12/14 02:48:06;;;;;;;57.08;19.70;;;;;;;1.66;100.00;100801.35;1632920;87;21833;-82
2022/12/14 02:50:46;;;;;;;55.52;20.17;;;;;;;1.70;100.00;100811.08;1627783;87;20888;-82
2022/12/14 02:53:27;;;;;;;55.58;20.43;;;;;;;1.73;100.00;100815.99;1633563;86;21061;-82
2022/12/14 02:55:56;;;;;;;56.35;20.40;;;;;;;1.88;100.00;100819.34;1580787;89;21090;-82
2022/12/14 02:58:42;;;;;;;54.00;19.27;;;;;;;1.85;100.00;100825.56;1580742;90;21185;-82
2022/12/14 03:01:12;;;;;;;53.42;19.05;;;;;;;1.86;100.00;100827.22;1581072;90;21992;-82
2022/12/14 03:03:39;;;;;;;56.88;20.23;;;;;;;1.88;100.00;100832.63;1580725;89;20960;-82
2022/12/14 03:06:24;;;;;;;56.77;19.70;;;;;;;1.89;100.00;100834.80;1580724;90;21089;-82
2022/12/14 03:08:45;;;;;;;55.17;19.20;;;;;;;1.91;100.00;100842.89;1575416;90;21058;-82
2022/12/14 03:11:17;;;;;;;53.50;19.40;;;;;;;1.89;100.00;100842.77;1580736;89;20986;-82
2022/12/14 03:13:51;;;;;;;47.70;18.25;;;;;;;1.94;100.00;100852.28;1580887;89;21880;-82
2022/12/14 03:16:27;;;;;;;48.38;17.37;;;;;;;1.97;100.00;100855.87;1610102;86;21099;-82
2022/12/14 03:19:25;;;;;;;48.25;17.15;;;;;;;1.97;100.00;100858.53;1657172;86;21058;-83
2022/12/14 03:21:57;;;;;;;45.43;16.00;;;;;;;1.90;100.00;100859.02;1657276;86;21058;-82
2022/12/14 03:24:28;;;;;;;42.38;16.17;;;;;;;1.90;100.00;100859.02;1657651;86;21129;-82
2022/12/14 03:27:00;;;;;;;42.53;15.13;;;;;;;1.85;100.00;100867.56;1656511;86;21557;-82
2022/12/14 03:29:31;;;;;;;36.20;14.80;;;;;;;1.84;100.00;100867.25;1516667;94;21129;-82
2022/12/14 03:32:08;;;;;;;39.20;14.30;;;;;;;1.85;100.00;100874.20;1517080;94;21125;-82
2022/12/14 03:35:02;;;;;;;40.92;14.20;;;;;;;1.80;100.00;100877.97;1546167;92;20958;-82
2022/12/14 03:37:40;;;;;;;;;;;;;;;1.78;100.00;100872.84;1548381;92;21505;-83
2022/12/14 03:40:09;;;;;;;39.38;14.90;;;;;;;1.78;100.00;100890.11;1530136;92;21736;-82
2022/12/14 03:42:58;;;;;;;41.88;16.52;;;;;;;1.76;100.00;100897.45;1544553;92;21126;-82
2022/12/14 03:45:47;;;;;;;41.13;14.80;;;;;;;1.77;100.00;100898.29;1537481;92;21103;-82
2022/12/14 03:52:17;;;;;;;47.98;17.48;;;;;;;1.86;100.00;100906.94;1535229;92;21662;-82
2022/12/14 03:55:10;;;;;;;55.10;19.62;;;;;;;1.88;100.00;100915.51;1515253;93;21753;-82
2022/12/14 03:58:13;;;;;;;54.70;18.25;;;;;;;1.84;100.00;100915.08;1459710;97;21121;-82
2022/12/14 04:04:52;;;;;;;54.73;19.27;;;;;;;1.65;100.00;100923.72;1458317;96;21023;-82
2022/12/14 04:07:38;;;;;;;53.00;19.25;;;;;;;1.67;100.00;100926.50;1472267;97;22333;-82
2022/12/14 04:22:24;;;;;;;49.00;17.87;;;;;;;1.66;100.00;100949.29;1470445;97;21167;-82
2022/12/14 04:28:04;;;;;;;45.43;16.27;;;;;;;1.60;100.00;100969.47;1485466;95;21162;-82
2022/12/14 04:30:34;;;;;;;41.33;16.32;;;;;;;1.73;100.00;100964.25;1492760;92;21129;-82
2022/12/14 04:33:45;;;;;;;42.25;15.45;;;;;;;1.62;100.00;100974.09;1525824;92;20994;-82
2022/12/14 04:35:39;;;;;;;40.77;14.00;;;;;;;1.55;100.00;100978.00;1526859;92;20998;-82
2022/12/14 04:38:14;;;;;;;;;;;;;;;1.51;100.00;100985.23;1531146;91;21815;-82
2022/12/14 04:40:54;;;;;;;29.00;11.40;;;;;;;1.47;100.00;100990.58;1522519;92;20146;-82
2022/12/14 04:43:28;;;;;;;27.20;10.60;;;;;;;1.46;100.00;100992.42;1527874;92;21092;-81
2022/12/14 04:46:07;;;;;;;28.52;10.78;;;;;;;1.27;100.00;100996.53;1525691;92;21450;-81
2022/12/14 04:49:00;;;;;;;21.62;8.68;;;;;;;1.23;100.00;101007.70;1528929;92;21031;-81
2022/12/14 04:51:58;;;;;;;24.37;9.63;;;;;;;1.19;100.00;101011.76;1525990;91;21983;-82
2022/12/14 04:54:38;;;;;;;19.32;8.15;;;;;;;0.97;100.00;101016.19;1515744;92;21194;-82
2022/12/14 04:57:15;;;;;;;16.00;7.20;;;;;;;0.90;100.00;101028.88;1481861;95;21922;-82
2022/12/14 04:59:42;;;;;;;17.35;6.92;;;;;;;0.78;100.00;101030.36;1542355;91;21128;-82
2022/12/14 05:02:21;;;;;;;16.50;7.40;;;;;;;0.72;100.00;101039.05;1529411;92;21598;-81
2022/12/14 05:05:01;;;;;;;16.95;6.95;;;;;;;0.62;100.00;101038.02;1561578;90;21723;-82
2022/12/14 05:11:00;;;;;;;17.45;7.15;;;;;;;0.43;100.00;101044.67;1526821;92;21152;-81
2022/12/14 05:13:37;;;;;;;15.45;7.17;;;;;;;0.36;100.00;101054.88;1525394;92;21153;-82
2022/12/14 05:16:04;;;;;;;20.32;8.10;;;;;;;0.33;100.00;101057.89;1515006;92;20955;-82
2022/12/14 05:18:34;;;;;;;18.48;7.17;;;;;;;0.26;100.00;101066.22;1515759;92;21705;-81
2022/12/14 05:21:00;;;;;;;18.17;7.62;;;;;;;0.20;100.00;101081.02;1460475;95;21265;-82
2022/12/14 05:23:26;;;;;;;18.52;7.17;;;;;;;0.16;100.00;101083.71;1447685;96;21015;-82
2022/12/14 05:25:52;;;;;;;17.90;7.70;;;;;;;0.10;100.00;101085.76;1480991;94;20959;-81
2022/12/14 05:28:18;;;;;;;19.12;7.60;;;;;;;0.08;100.00;101097.02;1482490;94;20959;-82
2022/12/14 05:48:18;;;;;;;17.52;7.75;;;;;;;-0.04;100.00;101133.20;1610170;86;21125;-82
2022/12/14 05:50:44;;;;;;;18.15;7.10;;;;;;;-0.04;100.00;101141.66;1614117;88;21110;-81
2022/12/14 05:53:10;;;;;;;15.43;6.75;;;;;;;0.03;100.00;101145.27;1609611;85;21066;-82
2022/12/14 05:55:36;;;;;;;15.63;6.72;;;;;;;0.20;100.00;101147.27;1672618;84;20984;-82
2022/12/14 05:58:04;;;;;;;16.02;6.72;;;;;;;0.63;100.00;101152.87;1659409;84;21028;-82
2022/12/14 06:00:30;;;;;;;16.95;6.47;;;;;;;1.24;100.00;101154.86;1651929;84;22211;-81
2022/12/14 06:02:58;;;;;;;18.85;7.67;;;;;;;1.89;100.00;101152.34;1655929;85;21026;-82
2022/12/14 06:05:31;;;;;;;16.25;6.78;;;;;;;1.95;100.00;101168.87;1654041;86;21137;-82
2022/12/14 06:07:59;;;;;;;19.07;7.72;;;;;;;2.39;100.00;101167.85;1605035;88;21054;-82
2022/12/14 06:10:26;;;;;;;16.62;6.53;;;;;;;3.07;100.00;101172.94;1599296;87;21070;-82
2022/12/14 06:15:22;;;;;;;16.52;7.25;;;;;;;4.04;100.00;101171.07;1518631;92;21114;-83
2022/12/14 06:17:50;;;;;;;16.93;7.20;;;;;;;4.53;100.00;101174.72;1516169;93;21544;-83
2022/12/14 06:20:22;;;;;;;15.72;7.30;;;;;;;5.48;100.00;101176.19;1511552;93;21843;-83
2022/12/14 06:22:48;;;;;;;18.95;8.15;;;;;;;6.50;100.00;101176.54;1514548;93;21269;-83
2022/12/14 06:25:14;;;;;;;26.55;8.33;;;;;;;7.37;100.00;101178.36;1522593;91;21925;-83
2022/12/14 06:27:41;;;;;;;60.60;8.30;;;;;;;8.22;100.00;101177.45;1516402;94;21118;-83
2022/12/14 06:30:11;;;;;;;96.82;11.28;;;;;;;9.13;100.00;101180.19;1511953;92;21092;-83
2022/12/14 06:32:41;;;;;;;588.45;26.68;;;;;;;10.10;100.00;101187.50;1518797;93;21184;-84
2022/12/14 06:35:14;;;;;;;293.40;16.07;;;;;;;10.63;100.00;101193.00;1514324;93;21026;-83
2022/12/14 06:37:42;;;;;;;88.55;10.78;;;;;;;10.92;100.00;101195.61;1515097;92;27529;-84
2022/12/14 06:40:13;;;;;;;260.02;16.17;;;;;;;11.37;100.00;101208.91;1490921;95;21110;-84
2022/12/14 06:42:41;;;;;;;367.70;17.35;;;;;;;11.94;100.00;101215.02;1493165;93;21042;-85
2022/12/14 06:45:18;;;;;;;1020.25;37.75;;;;;;;12.35;100.00;101231.11;1493193;94;21686;-85
2022/12/14 06:47:49;;;;;;;711.60;29.23;;;;;;;12.79;100.00;101230.13;1482658;94;21134;-85
2022/12/14 06:50:22;;;;;;;47.83;9.53;;;;;;;13.26;100.00;101230.21;1489645;95;21606;-86
2022/12/14 06:52:54;;;;;;;634.20;24.02;;;;;;;13.61;100.00;101226.86;1488577;94;21083;-85
2022/12/14 06:55:29;;;;;;;1926.13;80.40;;;;;;;13.78;100.00;101231.28;1503537;93;21033;-86
2022/12/14 07:00:48;;;;;;;457.15;19.82;;;;;;;14.14;100.00;101244.38;1534028;92;21006;-86
2022/12/14 07:03:22;;;;;;;132.00;10.85;;;;;;;14.39;100.00;101239.56;1425121;100;21122;-86
2022/12/14 07:16:04;;;;;;;1999.90;74.58;;;;;;;15.10;100.00;101258.31;1250797;113;21616;-88
2022/12/14 07:24:57;;;;;;;220.67;13.68;;;;;;;16.45;100.00;101282.82;1230318;115;21115;-87
2022/12/14 07:40:00;;;;;;;;;;;;;;;;;;;;;
2022/12/14 07:42:32;;;;;;;234.20;13.98;;;;;;;18.21;85.32;101314.38;1184459;118;21195;-88
2022/12/14 07:45:10;;;;;;;37.42;11.60;;;;;;;18.68;80.28;101321.62;1184370;119;21146;-89
2022/12/14 07:47:47;;;;;;;21.62;12.65;;;;;;;18.93;76.26;101322.34;1156007;122;21694;-88
2022/12/14 07:50:30;;;;;;;415.65;29.70;;;;;;;19.35;73.57;101318.59;1121254;125;22149;-88
2022/12/14 08:11:39;;;;;;;13.15;8.50;;;;;;;21.99;60.42;101316.84;1105302;126;20170;-89
2022/12/14 08:14:16;;;;;;;19.77;8.10;;;;;;;22.78;64.71;101330.69;1118982;126;21257;-89
2022/12/14 08:16:50;;;;;;;;;;;;;;;;;;;;;
2022/12/14 08:25:25;;;;;;;16.52;8.65;;;;;;;15.36;50.70;101341.92;1142653;123;21190;-86
2022/12/14 08:28:31;;;;;;;;;;;;;;;;;;;;;
2022/12/14 08:31:23;;;;;;;16.93;8.53;;;;;;;11.95;52.79;101357.12;1124507;124;21303;-84
2022/12/14 08:47:45;;;;;;;24.10;10.13;;;;;;;6.95;59.43;101359.88;1191254;118;21191;-85
2022/12/14 08:50:26;;;;;;;26.12;11.45;;;;;;;6.33;61.08;101371.65;1190694;119;21190;-85
2022/12/14 08:52:59;;;;;;;28.90;11.90;;;;;;;5.96;63.17;101370.53;1183304;119;22167;-84
2022/12/14 08:55:39;;;;;;;28.83;11.90;;;;;;;5.69;64.93;101374.56;1193694;120;21170;-84
2022/12/14 09:02:23;;;;;;;30.30;11.87;;;;;;;5.11;71.96;101378.38;1126419;125;21215;-84
2022/12/14 09:05:05;;;;;;;;;;;;;;;;;;;;;
2022/12/14 09:08:34;;;;;;;32.90;12.90;;;;;;;4.49;75.89;101386.15;1117504;126;21214;-84
2022/12/14 09:14:34;;;;;;;36.08;14.55;;;;;;;4.08;86.05;101400.33;1127925;124;21188;-84
2022/12/14 09:17:05;;;;;;;29.02;12.00;;;;;;;3.99;86.85;101400.99;1125334;126;21250;-83
2022/12/14 09:19:33;;;;;;;30.43;11.65;;;;;;;3.85;87.79;101407.26;1108947;127;21207;-83
2022/12/14 09:22:12;;;;;;;31.37;12.68;;;;;;;3.72;91.70;101404.52;1107453;126;22026;-83
2022/12/14 09:24:40;;;;;;;33.00;12.10;;;;;;;3.66;91.11;101408.78;1141262;124;21760;-83
2022/12/14 09:27:09;;;;;;;31.02;12.55;;;;;;;3.54;94.16;101411.16;1138382;124;21263;-82
2022/12/14 09:29:45;;;;;;;36.03;12.85;;;;;;;3.55;95.92;101411.45;1139747;124;21192;-84
2022/12/14 09:32:16;;;;;;;36.60;14.43;;;;;;;3.52;98.38;101407.03;1136109;124;21359;-83
2022/12/14 09:34:47;;;;;;;34.10;12.98;;;;;;;3.41;98.09;101409.70;1122798;125;21993;-83
2022/12/14 09:37:15;;;;;;;39.78;14.00;;;;;;;3.59;100.00;101413.25;1120231;126;21387;-83
2022/12/14 09:39:44;;;;;;;32.48;13.15;;;;;;;3.41;100.00;101411.88;1115587;126;21212;-83
2022/12/14 09:45:54;;;;;;;48.42;17.32;;;;;;;3.51;100.00;101418.72;1112235;128;21803;-82
2022/12/14 09:48:24;;;;;;;46.83;17.87;;;;;;;3.34;100.00;101418.16;1105471;127;21972;-83
2022/12/14 09:50:57;;;;;;;52.27;19.10;;;;;;;3.29;100.00;101421.89;1092428;129;21347;-83
2022/12/14 10:01:12;;;;;;;55.05;20.15;;;;;;;3.18;100.00;101420.58;1133769;120;21179;-83
2022/12/14 10:03:55;;;;;;;56.30;21.15;;;;;;;3.14;100.00;101422.78;1126188;122;23891;-83
2022/12/14 10:10:31;;;;;;;47.75;18.65;;;;;;;3.08;100.00;101426.20;1166242;120;21661;-82
2022/12/14 10:13:33;;;;;;;50.67;19.62;;;;;;;3.12;100.00;101427.49;1141366;124;21154;-83
2022/12/14 10:16:38;;;;;;;51.30;19.40;;;;;;;3.06;100.00;101428.25;1183603;118;21293;-83
2022/12/14 10:19:25;;;;;;;48.73;17.48;;;;;;;2.96;100.00;101431.20;1239952;112;22116;-83
2022/12/14 10:22:02;;;;;;;51.00;17.98;;;;;;;3.03;100.00;101430.44;1234812;115;21665;-83
2022/12/14 10:27:27;;;;;;;45.52;16.90;;;;;;;2.95;100.00;101435.41;1149073;123;21697;-83
2022/12/14 10:30:01;;;;;;;47.03;16.23;;;;;;;2.88;100.00;101439.33;1184227;118;21335;-83
2022/12/14 10:32:39;;;;;;;43.58;16.40;;;;;;;2.92;100.00;101443.77;1164747;122;21956;-83
2022/12/14 10:38:58;;;;;;;;;;;;;;;;;;;;;
2022/12/14 10:45:15;;;;;;;39.55;15.18;;;;;;;2.86;100.00;101460.48;1181409;119;21744;-81
2022/12/14 10:47:51;;;;;;;46.10;15.93;;;;;;;2.82;100.00;101460.02;1182865;119;21986;-81
2022/12/14 10:50:39;;;;;;;39.42;14.58;;;;;;;2.79;100.00;101470.22;1183432;119;22391;-81
2022/12/14 10:53:14;;;;;;;33.20;12.88;;;;;;;2.82;100.00;101469.33;1179333;119;21139;-81
2022/12/14 10:55:43;;;;;;;39.67;15.15;;;;;;;2.76;100.00;101475.41;1182578;119;21815;-82
2022/12/14 10:58:11;;;;;;;40.92;15.90;;;;;;;2.68;100.00;101474.20;1185223;116;21182;-83
2022/12/14 11:00:38;;;;;;;43.00;15.38;;;;;;;2.67;100.00;101475.19;1226990;115;21985;-83
2022/12/14 11:03:10;;;;;;;41.08;15.75;;;;;;;2.64;100.00;101479.05;1233298;114;21180;-83
2022/12/14 11:06:06;;;;;;;43.17;16.77;;;;;;;2.68;100.00;101477.68;1244715;113;21162;-83
2022/12/14 11:08:44;;;;;;;39.08;13.88;;;;;;;2.68;100.00;101479.02;1223769;116;21165;-83
2022/12/14 11:11:25;;;;;;;40.70;14.68;;;;;;;2.62;100.00;101478.42;1230973;114;21123;-83
2022/12/14 11:14:08;;;;;;;41.98;16.35;;;;;;;2.54;100.00;101483.84;1233787;113;21574;-83
2022/12/14 11:16:51;;;;;;;45.08;16.50;;;;;;;2.53;100.00;101486.67;1237032;113;21110;-84
2022/12/14 11:22:12;;;;;;;43.65;16.30;;;;;;;2.54;100.00;101492.33;1239938;114;21151;-83
2022/12/14 11:24:48;;;;;;;43.05;15.63;;;;;;;2.54;100.00;101487.02;1215545;117;21116;-84
2022/12/14 11:31:09;;;;;;;43.50;15.85;;;;;;;2.46;100.00;101490.07;1287948;109;21699;-84
2022/12/14 11:33:44;;;;;;;45.08;16.65;;;;;;;2.41;100.00;101489.82;1291227;109;21149;-84
2022/12/14 11:36:28;;;;;;;49.25;17.67;;;;;;;2.34;100.00;101488.88;1330910;103;21151;-84
2022/12/14 11:39:23;;;;;;;42.95;15.98;;;;;;;2.30;100.00;101498.25;1380606;103;21508;-85
2022/12/14 11:42:03;;;;;;;56.25;20.37;;;;;;;2.27;100.00;101496.78;1379292;102;22489;-86
2022/12/14 11:44:35;;;;;;;44.40;17.92;;;;;;;2.23;100.00;101500.79;1487458;94;21001;-86
2022/12/14 11:47:15;;;;;;;46.58;18.20;;;;;;;2.33;100.00;101494.41;1504432;95;21577;-86
2022/12/14 11:49:47;;;;;;;44.25;16.87;;;;;;;2.32;100.00;101487.41;1483871;94;21107;-86
2022/12/14 11:52:27;;;;;;;49.23;17.57;;;;;;;2.37;100.00;101497.00;1481673;95;21069;-86
2022/12/14 11:57:40;;;;;;;48.55;17.90;;;;;;;2.22;100.00;101497.81;1409898;100;21003;-85
2022/12/14 12:00:48;;;;;;;49.90;18.65;;;;;;;2.16;100.00;101500.39;1430258;99;21125;-84
2022/12/14 12:03:26;;;;;;;66.22;21.82;;;;;;;2.12;100.00;101507.91;1424557;100;21679;-84
2022/12/14 12:05:54;;;;;;;61.00;21.52;;;;;;;2.08;100.00;101503.12;1429649;99;21158;-82
2022/12/14 12:08:30;;;;;;;71.57;25.95;;;;;;;2.10;100.00;101513.91;1429463;99;22650;-85
2022/12/14 12:11:04;;;;;;;53.00;19.52;;;;;;;2.10;100.00;101519.22;1428330;100;21095;-84
2022/12/14 12:13:37;;;;;;;53.13;19.62;;;;;;;2.04;100.00;101523.93;1395039;102;21048;-84
2022/12/14 12:16:17;;;;;;;54.60;19.02;;;;;;;2.01;100.00;101533.59;1401749;101;22294;-85
2022/12/14 12:18:57;;;;;;;42.43;16.93;;;;;;;2.03;100.00;101535.58;1398928;101;21592;-84
2022/12/14 12:21:34;;;;;;;45.05;16.25;;;;;;;2.00;100.00;101539.90;1401423;102;21858;-84
2022/12/14 12:27:46;;;;;;;46.83;15.75;;;;;;;2.03;100.00;101542.23;1394498;102;21152;-85
2022/12/14 12:30:29;;;;;;;42.75;16.30;;;;;;;1.95;100.00;101545.77;1412314;100;21079;-83
2022/12/14 12:33:02;;;;;;;43.23;16.82;;;;;;;1.93;100.00;101550.43;1423512;99;21122;-83
2022/12/14 12:35:46;;;;;;;42.43;14.45;;;;;;;1.92;100.00;101554.11;1416074;100;21562;-84
2022/12/14 12:38:31;;;;;;;37.38;15.15;;;;;;;1.87;100.00;101566.27;1416582;100;21089;-84
2022/12/14 12:41:21;;;;;;;36.95;14.05;;;;;;;1.78;100.00;101570.83;1415749;101;21259;-84
2022/12/14 12:43:55;;;;;;;38.58;14.55;;;;;;;1.72;100.00;101580.33;1420258;100;21580;-85
2022/12/14 12:46:44;;;;;;;38.05;13.80;;;;;;;1.69;100.00;101585.99;1389613;102;21152;-86
2022/12/14 12:49:08;;;;;;;;;;;;;;;1.62;100.00;101594.36;1388400;102;21108;-84
2022/12/14 12:51:42;;;;;;;36.38;13.43;;;;;;;1.52;100.00;101595.89;1390410;102;20941;-84
2022/12/14 12:54:30;;;;;;;42.08;14.78;;;;;;;1.47;100.00;101599.59;1358276;104;21049;-85
2022/12/14 12:57:00;;;;;;;39.55;15.00;;;;;;;1.40;100.00;101604.44;1408133;99;21147;-84
2022/12/14 12:59:46;;;;;;;40.75;13.90;;;;;;;1.36;100.00;101611.94;1431169;99;21085;-85
2022/12/14 13:02:35;;;;;;;41.80;15.60;;;;;;;1.30;100.00;101602.01;1427188;99;21988;-86
2022/12/14 13:05:06;;;;;;;43.23;15.93;;;;;;;1.23;100.00;101608.48;1430919;99;21388;-84
2022/12/14 13:07:49;;;;;;;40.52;15.70;;;;;;;1.21;100.00;101601.22;1434163;99;21017;-84
2022/12/14 13:10:36;;;;;;;40.98;16.42;;;;;;;1.20;100.00;101604.85;1411092;100;21651;-85
2022/12/14 13:13:25;;;;;;;41.20;16.32;;;;;;;1.16;100.00;101610.70;1396312;101;21096;-83
2022/12/14 13:16:06;;;;;;;38.53;13.72;;;;;;;1.07;100.00;101604.59;1391762;99;21849;-84
2022/12/14 13:22:16;;;;;;;34.75;13.45;;;;;;;1.00;100.00;101606.27;1430505;98;21753;-84
2022/12/14 13:24:46;;;;;;;40.40;15.20;;;;;;;0.91;100.00;101604.14;1427475;98;21587;-84
2022/12/14 13:27:20;;;;;;;36.17;14.30;;;;;;;0.88;100.00;101596.05;1460950;97;21053;-84
2022/12/14 13:30:31;;;;;;;40.05;15.03;;;;;;;0.86;100.00;101600.69;1456262;97;21721;-85
2022/12/14 13:33:28;;;;;;;40.85;14.45;;;;;;;0.82;100.00;101596.70;1433254;98;21090;-84
2022/12/14 13:40:30;;;;;;;37.35;15.13;;;;;;;0.67;100.00;101609.02;1468762;95;21534;-84
2022/12/14 13:46:37;;;;;;;42.75;15.50;;;;;;;0.44;100.00;101626.98;1511927;92;21023;-84
2022/12/14 13:49:22;;;;;;;45.78;16.02;;;;;;;0.38;100.00;101631.62;1530926;92;21159;-83
2022/12/14 13:51:54;;;;;;;46.68;16.80;;;;;;;0.36;100.00;101628.30;1497828;95;21166;-84
2022/12/14 13:54:40;;;;;;;45.38;15.95;;;;;;;0.28;100.00;101634.11;1490467;94;21065;-84
2022/12/14 13:57:20;;;;;;;45.08;15.90;;;;;;;0.22;100.00;101644.38;1472508;95;21141;-85
2022/12/14 13:59:53;;;;;;;39.88;15.85;;;;;;;0.14;100.00;101650.98;1459337;95;21774;-84
2022/12/14 14:02:33;;;;;;;44.63;16.37;;;;;;;0.06;100.00;101654.98;1438179;97;21788;-84
2022/12/14 14:05:23;;;;;;;44.85;15.50;;;;;;;0.05;100.00;101655.13;1440866;97;21271;-84
2022/12/14 14:07:53;;;;;;;42.33;16.70;;;;;;;-0.02;100.00;101660.27;1446195;99;21128;-84
2022/12/14 14:10:36;;;;;;;51.88;17.32;;;;;;;-0.08;100.00;101659.09;1444875;97;21047;-84
2022/12/14 14:13:30;;;;;;;37.35;14.65;;;;;;;-0.11;100.00;101658.60;1451351;95;21666;-85
2022/12/14 14:16:08;;;;;;;48.55;18.50;;;;;;;-0.27;100.00;101663.35;1480671;95;21518;-85
2022/12/14 14:18:39;;;;;;;46.80;16.07;;;;;;;-0.34;100.00;105733.30;1490709;95;21120;-84
2022/12/14 14:21:23;;;;;;;41.98;16.02;;;;;;;-0.39;100.00;101665.97;1500953;95;21080;-83
